createdAt,value
2017-12-29T00:00:39.626Z,0
2017-12-29T00:01:39.385Z,0
2017-12-29T00:02:39.306Z,0
2017-12-29T00:03:39.589Z,0
2017-12-29T00:04:39.538Z,0
2017-12-29T00:05:39.526Z,0
2017-12-29T00:06:39.505Z,0
2017-12-29T00:07:39.781Z,0
2017-12-29T00:08:39.495Z,0
2017-12-29T00:09:39.434Z,0
2017-12-29T00:10:39.422Z,0
2017-12-29T00:11:39.399Z,0
2017-12-29T00:12:39.403Z,0
2017-12-29T00:13:39.079Z,0
2017-12-29T00:14:39.348Z,0
2017-12-29T00:15:39.078Z,0
2017-12-29T00:16:39.861Z,0
2017-12-29T00:17:39.281Z,0
2017-12-29T00:18:39.585Z,0
2017-12-29T00:19:38.973Z,0
2017-12-29T00:20:39.222Z,0
2017-12-29T00:21:38.928Z,0
2017-12-29T00:22:39.481Z,0
2017-12-29T00:23:39.139Z,0
2017-12-29T00:24:39.477Z,0
2017-12-29T00:25:39.410Z,0
2017-12-29T00:26:39.108Z,0
2017-12-29T00:27:39.058Z,0
2017-12-29T00:28:39.321Z,0
2017-12-29T00:29:39.028Z,0
2017-12-29T00:30:39.320Z,0
2017-12-29T00:31:39.003Z,0
2017-12-29T00:32:38.973Z,0
2017-12-29T00:33:38.673Z,0
2017-12-29T00:34:39.415Z,0
2017-12-29T00:35:38.960Z,0
2017-12-29T00:36:39.164Z,0
2017-12-29T00:37:38.588Z,0
2017-12-29T00:38:38.575Z,0
2017-12-29T00:39:39.127Z,0
2017-12-29T00:40:38.519Z,0
2017-12-29T00:41:38.798Z,0
2017-12-29T00:42:38.772Z,0
2017-12-29T00:43:39.043Z,0
2017-12-29T00:44:39.262Z,0
2017-12-29T00:45:39.544Z,0
2017-12-29T00:46:38.449Z,0
2017-12-29T00:47:38.627Z,0
2017-12-29T00:48:38.623Z,0
2017-12-29T00:49:38.615Z,0
2017-12-29T00:50:38.331Z,0
2017-12-29T00:51:38.850Z,0
2017-12-29T00:52:38.545Z,0
2017-12-29T00:53:38.269Z,0
2017-12-29T00:54:38.266Z,0
2017-12-29T00:55:38.497Z,0
2017-12-29T00:56:39.014Z,0
2017-12-29T00:57:38.167Z,0
2017-12-29T00:58:38.146Z,0
2017-12-29T00:59:38.668Z,0
2017-12-29T01:00:38.378Z,0
2017-12-29T01:01:38.630Z,0
2017-12-29T01:02:38.346Z,0
2017-12-29T01:03:38.328Z,0
2017-12-29T01:04:38.299Z,0
2017-12-29T01:05:38.837Z,0
2017-12-29T01:06:37.992Z,0
2017-12-29T01:07:37.968Z,0
2017-12-29T01:08:38.227Z,0
2017-12-29T01:09:38.741Z,0
2017-12-29T01:10:38.455Z,0
2017-12-29T01:11:38.718Z,0
2017-12-29T01:12:38.410Z,0
2017-12-29T01:13:38.119Z,0
2017-12-29T01:14:38.102Z,0
2017-12-29T01:15:37.799Z,0
2017-12-29T01:16:38.607Z,0
2017-12-29T01:17:38.312Z,0
2017-12-29T01:18:38.295Z,0
2017-12-29T01:19:38.273Z,0
2017-12-29T01:20:37.980Z,0
2017-12-29T01:21:37.968Z,0
2017-12-29T01:22:38.495Z,0
2017-12-29T01:23:38.469Z,0
2017-12-29T01:24:38.206Z,0
2017-12-29T01:25:37.885Z,0
2017-12-29T01:26:37.863Z,0
2017-12-29T01:27:37.836Z,0
2017-12-29T01:28:38.129Z,0
2017-12-29T01:29:38.077Z,0
2017-12-29T01:30:38.070Z,0
2017-12-29T01:31:38.038Z,0
2017-12-29T01:32:37.737Z,0
2017-12-29T01:33:37.744Z,0
2017-12-29T01:34:37.431Z,0
2017-12-29T01:35:37.410Z,0
2017-12-29T01:36:37.663Z,0
2017-12-29T01:37:37.654Z,0
2017-12-29T01:38:37.375Z,0
2017-12-29T01:39:37.876Z,0
2017-12-29T01:40:37.869Z,0
2017-12-29T01:41:37.576Z,0
2017-12-29T01:42:37.814Z,0
2017-12-29T01:43:37.788Z,0
2017-12-29T01:44:37.517Z,0
2017-12-29T01:45:37.765Z,0
2017-12-29T01:46:37.216Z,0
2017-12-29T01:47:37.474Z,0
2017-12-29T01:48:37.746Z,0
2017-12-29T01:49:37.411Z,0
2017-12-29T01:50:37.387Z,0
2017-12-29T01:51:37.108Z,0
2017-12-29T01:52:37.890Z,0
2017-12-29T01:53:37.882Z,0
2017-12-29T01:54:37.032Z,0
2017-12-29T01:55:37.298Z,0
2017-12-29T01:56:37.275Z,0
2017-12-29T01:57:37.516Z,0
2017-12-29T01:58:37.803Z,0
2017-12-29T01:59:37.548Z,0
2017-12-29T02:00:37.451Z,0
2017-12-29T02:01:37.904Z,0
2017-12-29T02:02:37.744Z,0
2017-12-29T02:03:37.362Z,0
2017-12-29T02:04:37.730Z,0
2017-12-29T02:05:37.347Z,0
2017-12-29T02:06:37.085Z,0
2017-12-29T02:07:36.861Z,0
2017-12-29T02:08:37.707Z,0
2017-12-29T02:09:37.227Z,0
2017-12-29T02:10:37.363Z,0
2017-12-29T02:11:37.430Z,0
2017-12-29T02:12:37.099Z,0
2017-12-29T02:13:37.002Z,0
2017-12-29T02:14:36.748Z,0
2017-12-29T02:15:36.716Z,0
2017-12-29T02:16:37.326Z,0
2017-12-29T02:17:36.594Z,0
2017-12-29T02:18:37.102Z,0
2017-12-29T02:19:37.352Z,0
2017-12-29T02:20:36.799Z,0
2017-12-29T02:21:36.783Z,0
2017-12-29T02:22:36.476Z,0
2017-12-29T02:23:36.994Z,0
2017-12-29T02:24:36.728Z,0
2017-12-29T02:25:36.412Z,0
2017-12-29T02:26:37.203Z,0
2017-12-29T02:27:36.664Z,0
2017-12-29T02:28:36.945Z,0
2017-12-29T02:29:37.447Z,0
2017-12-29T02:30:37.165Z,0
2017-12-29T02:31:37.165Z,0
2017-12-29T02:32:36.977Z,0
2017-12-29T02:33:36.897Z,0
2017-12-29T02:34:36.822Z,0
2017-12-29T02:35:37.093Z,0
2017-12-29T02:36:36.582Z,0
2017-12-29T02:37:36.503Z,0
2017-12-29T02:38:37.047Z,0
2017-12-29T02:39:36.520Z,0
2017-12-29T02:40:37.027Z,0
2017-12-29T02:41:37.210Z,0
2017-12-29T02:42:36.831Z,0
2017-12-29T02:43:36.779Z,0
2017-12-29T02:44:37.251Z,0
2017-12-29T02:45:36.904Z,0
2017-12-29T02:46:36.608Z,0
2017-12-29T02:47:36.634Z,0
2017-12-29T02:48:36.876Z,0
2017-12-29T02:49:36.786Z,0
2017-12-29T02:50:36.209Z,0
2017-12-29T02:51:35.915Z,0
2017-12-29T02:52:35.882Z,0
2017-12-29T02:53:36.131Z,0
2017-12-29T02:54:36.952Z,0
2017-12-29T02:55:36.099Z,0
2017-12-29T02:56:36.089Z,0
2017-12-29T02:57:36.339Z,0
2017-12-29T02:58:36.052Z,0
2017-12-29T02:59:35.755Z,0
2017-12-29T03:00:35.735Z,0
2017-12-29T03:01:35.705Z,0
2017-12-29T03:02:36.231Z,0
2017-12-29T03:03:35.944Z,0
2017-12-29T03:04:36.194Z,0
2017-12-29T03:05:36.161Z,0
2017-12-29T03:06:35.624Z,0
2017-12-29T03:07:36.146Z,0
2017-12-29T03:08:36.119Z,0
2017-12-29T03:09:35.554Z,0
2017-12-29T03:10:36.074Z,0
2017-12-29T03:11:35.514Z,0
2017-12-29T03:12:36.043Z,0
2017-12-29T03:13:35.746Z,0
2017-12-29T03:14:35.995Z,0
2017-12-29T03:15:35.998Z,0
2017-12-29T03:16:35.964Z,0
2017-12-29T03:17:35.658Z,0
2017-12-29T03:18:35.665Z,0
2017-12-29T03:19:35.905Z,0
2017-12-29T03:20:35.873Z,0
2017-12-29T03:21:35.315Z,0
2017-12-29T03:22:35.586Z,0
2017-12-29T03:23:36.156Z,0
2017-12-29T03:24:35.557Z,0
2017-12-29T03:25:35.252Z,0
2017-12-29T03:26:35.508Z,0
2017-12-29T03:27:35.464Z,0
2017-12-29T03:28:35.717Z,0
2017-12-29T03:29:35.435Z,0
2017-12-29T03:30:35.428Z,0
2017-12-29T03:31:35.130Z,0
2017-12-29T03:32:35.955Z,0
2017-12-29T03:33:35.096Z,0
2017-12-29T03:34:35.343Z,0
2017-12-29T03:35:35.035Z,0
2017-12-29T03:36:35.305Z,0
2017-12-29T03:37:35.298Z,0
2017-12-29T03:38:35.588Z,0
2017-12-29T03:39:35.230Z,0
2017-12-29T03:40:35.217Z,0
2017-12-29T03:41:34.925Z,0
2017-12-29T03:42:35.195Z,0
2017-12-29T03:43:35.455Z,0
2017-12-29T03:44:34.862Z,0
2017-12-29T03:45:35.424Z,0
2017-12-29T03:46:35.389Z,0
2017-12-29T03:47:35.076Z,0
2017-12-29T03:48:35.343Z,0
2017-12-29T03:49:35.324Z,0
2017-12-29T03:50:35.289Z,0
2017-12-29T03:51:34.740Z,0
2017-12-29T03:52:35.306Z,0
2017-12-29T03:53:34.964Z,0
2017-12-29T03:54:35.219Z,0
2017-12-29T03:55:34.655Z,0
2017-12-29T03:56:34.912Z,0
2017-12-29T03:57:34.614Z,0
2017-12-29T03:58:34.864Z,0
2017-12-29T03:59:34.843Z,0
2017-12-29T04:00:34.825Z,0
2017-12-29T04:01:34.801Z,0
2017-12-29T04:02:34.787Z,0
2017-12-29T04:03:35.039Z,0
2017-12-29T04:04:34.492Z,0
2017-12-29T04:05:34.728Z,0
2017-12-29T04:06:34.985Z,0
2017-12-29T04:07:34.989Z,0
2017-12-29T04:08:34.968Z,0
2017-12-29T04:09:35.479Z,0
2017-12-29T04:10:34.649Z,0
2017-12-29T04:11:34.890Z,0
2017-12-29T04:12:34.337Z,0
2017-12-29T04:13:34.301Z,0
2017-12-29T04:14:34.567Z,0
2017-12-29T04:15:34.267Z,0
2017-12-29T04:16:34.786Z,0
2017-12-29T04:17:34.779Z,0
2017-12-29T04:18:34.473Z,0
2017-12-29T04:19:34.720Z,0
2017-12-29T04:20:34.715Z,0
2017-12-29T04:21:34.151Z,0
2017-12-29T04:22:34.397Z,0
2017-12-29T04:23:34.376Z,0
2017-12-29T04:24:34.375Z,0
2017-12-29T04:25:34.609Z,0
2017-12-29T04:26:34.596Z,0
2017-12-29T04:27:34.308Z,0
2017-12-29T04:28:34.309Z,0
2017-12-29T04:29:34.816Z,0
2017-12-29T04:30:34.253Z,0
2017-12-29T04:31:34.770Z,0
2017-12-29T04:32:34.244Z,0
2017-12-29T04:33:35.404Z,0
2017-12-29T04:34:34.181Z,0
2017-12-29T04:35:34.368Z,0
2017-12-29T04:36:34.079Z,0
2017-12-29T04:37:34.151Z,0
2017-12-29T04:38:34.101Z,0
2017-12-29T04:39:34.341Z,0
2017-12-29T04:40:34.062Z,0
2017-12-29T04:41:34.057Z,0
2017-12-29T04:42:33.745Z,0
2017-12-29T04:43:34.541Z,0
2017-12-29T04:44:33.984Z,0
2017-12-29T04:45:34.225Z,0
2017-12-29T04:46:33.934Z,0
2017-12-29T04:47:34.186Z,0
2017-12-29T04:48:34.458Z,0
2017-12-29T04:49:33.878Z,0
2017-12-29T04:50:33.595Z,0
2017-12-29T04:51:33.864Z,0
2017-12-29T04:52:33.822Z,0
2017-12-29T04:53:33.803Z,0
2017-12-29T04:54:33.789Z,0
2017-12-29T04:55:33.801Z,0
2017-12-29T04:56:33.476Z,0
2017-12-29T04:57:33.721Z,0
2017-12-29T04:58:33.703Z,0
2017-12-29T04:59:33.677Z,0
2017-12-29T05:00:34.233Z,0
2017-12-29T05:01:33.390Z,0
2017-12-29T05:02:33.354Z,0
2017-12-29T05:03:34.181Z,0
2017-12-29T05:04:33.859Z,0
2017-12-29T05:05:33.302Z,0
2017-12-29T05:06:34.101Z,0
2017-12-29T05:07:33.525Z,0
2017-12-29T05:08:33.512Z,0
2017-12-29T05:09:33.522Z,0
2017-12-29T05:10:33.213Z,0
2017-12-29T05:11:33.751Z,0
2017-12-29T05:12:33.708Z,0
2017-12-29T05:13:33.697Z,0
2017-12-29T05:14:33.396Z,0
2017-12-29T05:15:33.692Z,0
2017-12-29T05:16:33.639Z,0
2017-12-29T05:17:33.077Z,0
2017-12-29T05:18:33.045Z,0
2017-12-29T05:19:33.854Z,0
2017-12-29T05:20:33.828Z,0
2017-12-29T05:21:33.523Z,0
2017-12-29T05:22:33.242Z,0
2017-12-29T05:23:33.506Z,0
2017-12-29T05:24:33.214Z,0
2017-12-29T05:25:33.199Z,0
2017-12-29T05:26:32.893Z,0
2017-12-29T05:27:32.897Z,0
2017-12-29T05:28:33.419Z,0
2017-12-29T05:29:32.834Z,0
2017-12-29T05:30:33.636Z,0
2017-12-29T05:31:32.798Z,0
2017-12-29T05:32:33.048Z,0
2017-12-29T05:33:33.053Z,0
2017-12-29T05:34:33.046Z,0
2017-12-29T05:35:33.282Z,0
2017-12-29T05:36:32.972Z,0
2017-12-29T05:37:32.950Z,0
2017-12-29T05:38:32.664Z,0
2017-12-29T05:39:33.469Z,0
2017-12-29T05:40:32.690Z,0
2017-12-29T05:41:32.603Z,0
2017-12-29T05:42:32.855Z,0
2017-12-29T05:43:32.564Z,0
2017-12-29T05:44:32.554Z,0
2017-12-29T05:45:32.535Z,0
2017-12-29T05:46:33.341Z,0
2017-12-29T05:47:33.034Z,0
2017-12-29T05:48:33.308Z,0
2017-12-29T05:49:33.009Z,0
2017-12-29T05:50:33.255Z,0
2017-12-29T05:51:32.956Z,0
2017-12-29T05:52:33.224Z,0
2017-12-29T05:53:32.373Z,0
2017-12-29T05:54:32.625Z,0
2017-12-29T05:55:32.891Z,0
2017-12-29T05:56:32.859Z,0
2017-12-29T05:57:33.102Z,0
2017-12-29T05:58:32.546Z,0
2017-12-29T05:59:32.534Z,0
2017-12-29T06:00:32.510Z,0
2017-12-29T06:01:32.504Z,0
2017-12-29T06:02:32.762Z,0
2017-12-29T06:03:32.466Z,0
2017-12-29T06:04:32.431Z,0
2017-12-29T06:05:32.689Z,0
2017-12-29T06:06:32.952Z,0
2017-12-29T06:07:32.376Z,0
2017-12-29T06:08:32.646Z,0
2017-12-29T06:09:32.083Z,0
2017-12-29T06:10:32.317Z,0
2017-12-29T06:11:32.300Z,0
2017-12-29T06:12:32.562Z,0
2017-12-29T06:13:32.259Z,0
2017-12-29T06:14:32.238Z,0
2017-12-29T06:15:31.965Z,0
2017-12-29T06:16:32.419Z,0
2017-12-29T06:17:32.730Z,0
2017-12-29T06:18:32.202Z,0
2017-12-29T06:19:32.420Z,0
2017-12-29T06:20:32.751Z,0
2017-12-29T06:21:32.116Z,0
2017-12-29T06:22:32.361Z,0
2017-12-29T06:23:32.339Z,0
2017-12-29T06:24:31.775Z,0
2017-12-29T06:25:32.311Z,0
2017-12-29T06:26:32.029Z,0
2017-12-29T06:27:32.358Z,0
2017-12-29T06:28:31.986Z,0
2017-12-29T06:29:32.523Z,0
2017-12-29T06:30:31.933Z,0
2017-12-29T06:31:31.913Z,0
2017-12-29T06:32:32.183Z,0
2017-12-29T06:33:31.716Z,0
2017-12-29T06:34:32.137Z,0
2017-12-29T06:35:32.108Z,0
2017-12-29T06:36:32.089Z,0
2017-12-29T06:37:31.847Z,0
2017-12-29T06:38:31.797Z,0
2017-12-29T06:39:32.028Z,0
2017-12-29T06:40:31.502Z,0
2017-12-29T06:41:31.998Z,0
2017-12-29T06:42:31.432Z,0
2017-12-29T06:43:31.951Z,0
2017-12-29T06:44:32.219Z,0
2017-12-29T06:45:31.376Z,0
2017-12-29T06:46:31.368Z,0
2017-12-29T06:47:31.906Z,0
2017-12-29T06:48:31.629Z,0
2017-12-29T06:49:31.852Z,0
2017-12-29T06:50:32.100Z,0
2017-12-29T06:51:31.533Z,0
2017-12-29T06:52:31.780Z,0
2017-12-29T06:53:31.761Z,0
2017-12-29T06:54:31.471Z,0
2017-12-29T06:55:31.452Z,0
2017-12-29T06:56:31.723Z,0
2017-12-29T06:57:31.412Z,0
2017-12-29T06:58:31.416Z,0
2017-12-29T06:59:31.738Z,0
2017-12-29T07:00:31.350Z,0
2017-12-29T07:01:31.954Z,0
2017-12-29T07:02:31.054Z,0
2017-12-29T07:03:32.115Z,0
2017-12-29T07:04:31.277Z,0
2017-12-29T07:05:31.273Z,0
2017-12-29T07:06:31.784Z,0
2017-12-29T07:07:31.506Z,0
2017-12-29T07:08:31.752Z,0
2017-12-29T07:09:30.919Z,0
2017-12-29T07:10:31.164Z,0
2017-12-29T07:11:30.873Z,0
2017-12-29T07:12:31.391Z,0
2017-12-29T07:13:31.107Z,0
2017-12-29T07:14:31.352Z,0
2017-12-29T07:15:30.826Z,0
2017-12-29T07:16:31.275Z,5
2017-12-29T07:17:31.304Z,5
2017-12-29T07:18:30.759Z,5
2017-12-29T07:19:30.740Z,5
2017-12-29T07:20:31.714Z,5
2017-12-29T07:21:30.704Z,5
2017-12-29T07:22:31.478Z,5
2017-12-29T07:23:30.667Z,5
2017-12-29T07:24:31.171Z,5
2017-12-29T07:25:30.874Z,10
2017-12-29T07:26:30.583Z,10
2017-12-29T07:27:30.839Z,10
2017-12-29T07:28:31.089Z,10
2017-12-29T07:29:30.802Z,10
2017-12-29T07:30:30.790Z,15
2017-12-29T07:31:31.056Z,15
2017-12-29T07:32:31.022Z,15
2017-12-29T07:33:30.724Z,10
2017-12-29T07:34:30.703Z,15
2017-12-29T07:35:30.679Z,15
2017-12-29T07:36:30.668Z,15
2017-12-29T07:37:30.945Z,20
2017-12-29T07:38:30.624Z,20
2017-12-29T07:39:30.611Z,20
2017-12-29T07:40:30.323Z,20
2017-12-29T07:41:30.843Z,25
2017-12-29T07:42:30.547Z,25
2017-12-29T07:43:30.542Z,30
2017-12-29T07:44:30.514Z,35
2017-12-29T07:45:31.071Z,30
2017-12-29T07:46:30.472Z,30
2017-12-29T07:47:30.749Z,35
2017-12-29T07:48:30.438Z,35
2017-12-29T07:49:30.973Z,35
2017-12-29T07:50:30.391Z,40
2017-12-29T07:51:30.404Z,40
2017-12-29T07:52:30.635Z,40
2017-12-29T07:53:30.608Z,40
2017-12-29T07:54:30.067Z,45
2017-12-29T07:55:30.579Z,45
2017-12-29T07:56:30.550Z,45
2017-12-29T07:57:30.813Z,50
2017-12-29T07:58:30.259Z,55
2017-12-29T07:59:30.495Z,55
2017-12-29T08:00:30.342Z,50
2017-12-29T08:01:30.217Z,50
2017-12-29T08:02:30.454Z,50
2017-12-29T08:03:30.158Z,50
2017-12-29T08:04:29.871Z,45
2017-12-29T08:05:29.838Z,45
2017-12-29T08:06:30.383Z,50
2017-12-29T08:07:30.078Z,50
2017-12-29T08:08:30.092Z,50
2017-12-29T08:09:30.623Z,50
2017-12-29T08:10:30.305Z,55
2017-12-29T08:11:30.030Z,55
2017-12-29T08:12:30.277Z,60
2017-12-29T08:13:30.507Z,65
2017-12-29T08:14:30.237Z,65
2017-12-29T08:15:30.474Z,60
2017-12-29T08:16:29.636Z,60
2017-12-29T08:17:30.169Z,65
2017-12-29T08:18:29.871Z,75
2017-12-29T08:19:29.906Z,80
2017-12-29T08:20:29.554Z,80
2017-12-29T08:21:30.085Z,80
2017-12-29T08:22:30.063Z,85
2017-12-29T08:23:30.046Z,85
2017-12-29T08:24:30.023Z,85
2017-12-29T08:25:30.014Z,80
2017-12-29T08:26:29.730Z,70
2017-12-29T08:27:29.482Z,60
2017-12-29T08:28:29.414Z,55
2017-12-29T08:29:29.674Z,55
2017-12-29T08:30:29.386Z,55
2017-12-29T08:31:29.349Z,55
2017-12-29T08:32:29.887Z,60
2017-12-29T08:33:30.258Z,75
2017-12-29T08:34:29.311Z,70
2017-12-29T08:35:29.540Z,60
2017-12-29T08:36:29.531Z,65
2017-12-29T08:37:29.813Z,70
2017-12-29T08:38:29.782Z,75
2017-12-29T08:39:29.764Z,85
2017-12-29T08:40:29.465Z,80
2017-12-29T08:41:29.724Z,75
2017-12-29T08:42:29.688Z,70
2017-12-29T08:43:29.124Z,70
2017-12-29T08:44:29.388Z,75
2017-12-29T08:45:29.092Z,80
2017-12-29T08:46:29.354Z,85
2017-12-29T08:47:29.532Z,70
2017-12-29T08:48:29.059Z,65
2017-12-29T08:49:29.010Z,70
2017-12-29T08:50:29.263Z,70
2017-12-29T08:51:28.974Z,70
2017-12-29T08:52:29.769Z,65
2017-12-29T08:53:28.964Z,60
2017-12-29T08:54:29.461Z,60
2017-12-29T08:55:29.459Z,60
2017-12-29T08:56:29.155Z,60
2017-12-29T08:57:29.425Z,65
2017-12-29T08:58:28.864Z,65
2017-12-29T08:59:28.824Z,70
2017-12-29T09:00:29.081Z,60
2017-12-29T09:01:29.338Z,60
2017-12-29T09:02:29.314Z,55
2017-12-29T09:03:29.035Z,60
2017-12-29T09:04:29.025Z,65
2017-12-29T09:05:28.722Z,70
2017-12-29T09:06:28.708Z,75
2017-12-29T09:07:28.690Z,70
2017-12-29T09:08:28.662Z,80
2017-12-29T09:09:28.930Z,80
2017-12-29T09:10:29.431Z,85
2017-12-29T09:11:29.419Z,90
2017-12-29T09:12:28.598Z,85
2017-12-29T09:13:28.860Z,80
2017-12-29T09:14:28.839Z,80
2017-12-29T09:15:29.103Z,90
2017-12-29T09:16:28.787Z,90
2017-12-29T09:17:28.781Z,100
2017-12-29T09:18:29.068Z,100
2017-12-29T09:19:29.011Z,115
2017-12-29T09:20:28.732Z,120
2017-12-29T09:21:28.696Z,95
2017-12-29T09:22:28.947Z,95
2017-12-29T09:23:28.922Z,105
2017-12-29T09:24:28.676Z,110
2017-12-29T09:25:29.436Z,105
2017-12-29T09:26:28.871Z,110
2017-12-29T09:27:28.332Z,105
2017-12-29T09:28:28.297Z,110
2017-12-29T09:29:28.539Z,110
2017-12-29T09:30:43.399Z,125
2017-12-29T09:31:28.788Z,125
2017-12-29T09:32:28.211Z,125
2017-12-29T09:33:28.464Z,130
2017-12-29T09:34:28.721Z,135
2017-12-29T09:35:28.710Z,135
2017-12-29T09:36:28.163Z,140
2017-12-29T09:37:28.394Z,150
2017-12-29T09:38:28.101Z,140
2017-12-29T09:39:28.087Z,115
2017-12-29T09:40:28.075Z,120
2017-12-29T09:41:28.044Z,130
2017-12-29T09:42:28.027Z,130
2017-12-29T09:43:28.015Z,140
2017-12-29T09:44:28.802Z,150
2017-12-29T09:45:28.247Z,160
2017-12-29T09:46:27.951Z,170
2017-12-29T09:47:28.228Z,160
2017-12-29T09:48:27.916Z,165
2017-12-29T09:49:28.672Z,170
2017-12-29T09:50:28.419Z,175
2017-12-29T09:51:28.142Z,205
2017-12-29T09:52:28.115Z,215
2017-12-29T09:53:28.365Z,195
2017-12-29T09:54:28.649Z,180
2017-12-29T09:55:28.064Z,165
2017-12-29T09:56:28.043Z,180
2017-12-29T09:57:27.772Z,195
2017-12-29T09:58:28.562Z,215
2017-12-29T09:59:28.270Z,215
2017-12-29T10:00:27.974Z,210
2017-12-29T10:01:27.698Z,235
2017-12-29T10:02:27.662Z,235
2017-12-29T10:03:27.920Z,210
2017-12-29T10:04:28.460Z,210
2017-12-29T10:05:28.161Z,195
2017-12-29T10:06:27.591Z,250
2017-12-29T10:07:27.575Z,205
2017-12-29T10:08:27.563Z,215
2017-12-29T10:09:28.099Z,215
2017-12-29T10:10:27.803Z,185
2017-12-29T10:11:27.786Z,170
2017-12-29T10:12:28.033Z,150
2017-12-29T10:13:27.771Z,140
2017-12-29T10:14:27.465Z,135
2017-12-29T10:15:27.857Z,190
2017-12-29T10:16:28.457Z,160
2017-12-29T10:17:27.695Z,145
2017-12-29T10:18:27.957Z,160
2017-12-29T10:19:27.971Z,150
2017-12-29T10:20:27.358Z,165
2017-12-29T10:21:27.639Z,215
2017-12-29T10:22:27.911Z,165
2017-12-29T10:23:27.866Z,210
2017-12-29T10:24:27.269Z,170
2017-12-29T10:25:27.537Z,190
2017-12-29T10:26:27.850Z,205
2017-12-29T10:27:27.777Z,255
2017-12-29T10:28:27.470Z,200
2017-12-29T10:29:28.040Z,195
2017-12-29T10:30:27.465Z,225
2017-12-29T10:31:27.709Z,250
2017-12-29T10:32:27.174Z,180
2017-12-29T10:33:27.679Z,200
2017-12-29T10:34:27.384Z,155
2017-12-29T10:35:27.379Z,165
2017-12-29T10:36:27.384Z,190
2017-12-29T10:37:27.322Z,245
2017-12-29T10:38:27.357Z,235
2017-12-29T10:39:27.682Z,190
2017-12-29T10:40:27.262Z,185
2017-12-29T10:41:27.243Z,195
2017-12-29T10:42:27.283Z,170
2017-12-29T10:43:27.532Z,145
2017-12-29T10:44:27.196Z,145
2017-12-29T10:45:27.440Z,160
2017-12-29T10:46:27.420Z,175
2017-12-29T10:47:27.476Z,190
2017-12-29T10:48:27.207Z,195
2017-12-29T10:49:27.703Z,200
2017-12-29T10:50:27.103Z,195
2017-12-29T10:51:27.075Z,190
2017-12-29T10:52:27.077Z,210
2017-12-29T10:53:27.411Z,170
2017-12-29T10:54:27.036Z,195
2017-12-29T10:55:27.325Z,190
2017-12-29T10:56:27.561Z,185
2017-12-29T10:57:26.993Z,180
2017-12-29T10:58:27.563Z,175
2017-12-29T10:59:27.504Z,185
2017-12-29T11:00:26.997Z,175
2017-12-29T11:01:26.652Z,190
2017-12-29T11:02:26.643Z,180
2017-12-29T11:03:26.958Z,195
2017-12-29T11:04:27.148Z,200
2017-12-29T11:05:27.425Z,185
2017-12-29T11:06:26.876Z,170
2017-12-29T11:07:26.526Z,185
2017-12-29T11:08:27.062Z,180
2017-12-29T11:09:26.802Z,180
2017-12-29T11:10:26.728Z,175
2017-12-29T11:11:26.708Z,155
2017-12-29T11:12:26.705Z,150
2017-12-29T11:13:26.980Z,155
2017-12-29T11:14:26.981Z,160
2017-12-29T11:15:26.921Z,155
2017-12-29T11:16:27.164Z,150
2017-12-29T11:17:26.878Z,140
2017-12-29T11:18:26.593Z,120
2017-12-29T11:19:26.946Z,115
2017-12-29T11:20:27.604Z,125
2017-12-29T11:21:27.210Z,145
2017-12-29T11:22:26.743Z,165
2017-12-29T11:23:26.613Z,170
2017-12-29T11:24:26.643Z,150
2017-12-29T11:25:26.806Z,140
2017-12-29T11:26:26.707Z,150
2017-12-29T11:27:26.718Z,150
2017-12-29T11:28:26.413Z,135
2017-12-29T11:29:26.924Z,135
2017-12-29T11:30:26.637Z,135
2017-12-29T11:31:26.903Z,145
2017-12-29T11:32:26.065Z,165
2017-12-29T11:33:26.043Z,180
2017-12-29T11:34:26.347Z,210
2017-12-29T11:35:26.281Z,205
2017-12-29T11:36:26.273Z,175
2017-12-29T11:37:26.242Z,185
2017-12-29T11:38:26.234Z,220
2017-12-29T11:39:25.945Z,225
2017-12-29T11:40:26.191Z,205
2017-12-29T11:41:26.444Z,205
2017-12-29T11:42:26.162Z,190
2017-12-29T11:43:26.415Z,180
2017-12-29T11:44:26.118Z,165
2017-12-29T11:45:26.103Z,145
2017-12-29T11:46:25.811Z,145
2017-12-29T11:47:29.662Z,130
2017-12-29T11:48:26.048Z,140
2017-12-29T11:49:26.026Z,135
2017-12-29T11:50:26.290Z,135
2017-12-29T11:51:25.742Z,150
2017-12-29T11:52:26.256Z,185
2017-12-29T11:53:26.511Z,185
2017-12-29T11:54:25.681Z,170
2017-12-29T11:55:25.924Z,165
2017-12-29T11:56:26.175Z,150
2017-12-29T11:57:25.894Z,150
2017-12-29T11:58:26.722Z,160
2017-12-29T11:59:25.852Z,155
2017-12-29T12:00:25.852Z,155
2017-12-29T12:01:25.564Z,195
2017-12-29T12:02:25.801Z,175
2017-12-29T12:03:25.509Z,160
2017-12-29T12:04:25.760Z,165
2017-12-29T12:05:25.497Z,195
2017-12-29T12:06:25.745Z,205
2017-12-29T12:07:25.708Z,215
2017-12-29T12:08:26.235Z,210
2017-12-29T12:09:25.730Z,205
2017-12-29T12:10:25.680Z,220
2017-12-29T12:11:25.929Z,210
2017-12-29T12:12:25.894Z,200
2017-12-29T12:13:25.615Z,175
2017-12-29T12:14:25.859Z,170
2017-12-29T12:15:26.131Z,170
2017-12-29T12:16:25.563Z,205
2017-12-29T12:17:25.273Z,205
2017-12-29T12:18:25.515Z,190
2017-12-29T12:19:25.775Z,200
2017-12-29T12:20:25.521Z,210
2017-12-29T12:21:25.481Z,185
2017-12-29T12:22:25.747Z,180
2017-12-29T12:23:25.975Z,165
2017-12-29T12:24:25.701Z,160
2017-12-29T12:25:25.695Z,150
2017-12-29T12:26:25.941Z,155
2017-12-29T12:27:25.363Z,145
2017-12-29T12:28:25.409Z,140
2017-12-29T12:29:25.052Z,140
2017-12-29T12:30:25.581Z,145
2017-12-29T12:31:25.292Z,145
2017-12-29T12:32:25.036Z,140
2017-12-29T12:33:25.526Z,155
2017-12-29T12:34:25.256Z,160
2017-12-29T12:35:25.498Z,155
2017-12-29T12:36:25.202Z,145
2017-12-29T12:37:25.186Z,155
2017-12-29T12:38:24.923Z,160
2017-12-29T12:39:25.732Z,170
2017-12-29T12:40:25.130Z,185
2017-12-29T12:41:25.402Z,200
2017-12-29T12:42:25.373Z,195
2017-12-29T12:43:25.351Z,185
2017-12-29T12:44:25.334Z,175
2017-12-29T12:45:24.824Z,180
2017-12-29T12:46:25.065Z,160
2017-12-29T12:47:24.740Z,150
2017-12-29T12:48:25.016Z,155
2017-12-29T12:49:24.989Z,155
2017-12-29T12:50:24.958Z,160
2017-12-29T12:51:24.671Z,155
2017-12-29T12:52:24.993Z,150
2017-12-29T12:53:25.215Z,155
2017-12-29T12:54:26.341Z,155
2017-12-29T12:55:24.614Z,145
2017-12-29T12:56:25.504Z,150
2017-12-29T12:57:24.856Z,155
2017-12-29T12:58:24.546Z,155
2017-12-29T12:59:25.068Z,165
2017-12-29T13:00:25.048Z,160
2017-12-29T13:01:24.492Z,160
2017-12-29T13:02:24.750Z,175
2017-12-29T13:03:25.022Z,180
2017-12-29T13:04:24.456Z,180
2017-12-29T13:05:24.717Z,145
2017-12-29T13:06:24.713Z,115
2017-12-29T13:07:24.737Z,100
2017-12-29T13:08:24.921Z,100
2017-12-29T13:09:24.654Z,110
2017-12-29T13:10:24.601Z,120
2017-12-29T13:11:24.872Z,135
2017-12-29T13:12:24.571Z,120
2017-12-29T13:13:24.592Z,115
2017-12-29T13:14:24.568Z,110
2017-12-29T13:15:24.269Z,120
2017-12-29T13:16:24.495Z,120
2017-12-29T13:17:24.771Z,110
2017-12-29T13:18:24.731Z,105
2017-12-29T13:19:24.178Z,100
2017-12-29T13:20:24.702Z,100
2017-12-29T13:21:24.147Z,100
2017-12-29T13:22:24.951Z,95
2017-12-29T13:23:24.377Z,95
2017-12-29T13:24:24.076Z,90
2017-12-29T13:25:24.339Z,90
2017-12-29T13:26:24.863Z,90
2017-12-29T13:27:24.043Z,85
2017-12-29T13:28:24.201Z,85
2017-12-29T13:29:24.859Z,85
2017-12-29T13:30:24.245Z,85
2017-12-29T13:31:24.228Z,85
2017-12-29T13:32:24.488Z,85
2017-12-29T13:33:24.468Z,85
2017-12-29T13:34:24.449Z,85
2017-12-29T13:35:24.421Z,85
2017-12-29T13:36:24.132Z,85
2017-12-29T13:37:24.380Z,85
2017-12-29T13:38:24.108Z,75
2017-12-29T13:39:23.812Z,75
2017-12-29T13:40:24.379Z,75
2017-12-29T13:41:23.769Z,75
2017-12-29T13:42:24.037Z,80
2017-12-29T13:43:24.006Z,80
2017-12-29T13:44:24.259Z,80
2017-12-29T13:45:23.998Z,75
2017-12-29T13:46:23.694Z,75
2017-12-29T13:47:23.676Z,75
2017-12-29T13:48:23.658Z,75
2017-12-29T13:49:24.163Z,75
2017-12-29T13:50:24.477Z,70
2017-12-29T13:51:24.150Z,70
2017-12-29T13:52:23.857Z,70
2017-12-29T13:53:23.831Z,65
2017-12-29T13:54:23.811Z,65
2017-12-29T13:55:24.121Z,65
2017-12-29T13:56:24.076Z,65
2017-12-29T13:57:24.317Z,65
2017-12-29T13:58:23.717Z,65
2017-12-29T13:59:23.719Z,65
2017-12-29T14:00:23.983Z,65
2017-12-29T14:01:23.680Z,65
2017-12-29T14:02:23.931Z,70
2017-12-29T14:03:23.910Z,80
2017-12-29T14:04:23.961Z,90
2017-12-29T14:05:23.599Z,100
2017-12-29T14:06:23.587Z,95
2017-12-29T14:07:23.885Z,85
2017-12-29T14:08:23.265Z,80
2017-12-29T14:09:23.510Z,80
2017-12-29T14:10:23.268Z,70
2017-12-29T14:11:23.237Z,60
2017-12-29T14:12:23.782Z,55
2017-12-29T14:13:23.736Z,55
2017-12-29T14:14:23.436Z,55
2017-12-29T14:15:23.708Z,55
2017-12-29T14:16:23.932Z,50
2017-12-29T14:17:23.905Z,50
2017-12-29T14:18:23.615Z,50
2017-12-29T14:19:23.621Z,50
2017-12-29T14:20:23.052Z,50
2017-12-29T14:21:23.561Z,55
2017-12-29T14:22:23.814Z,55